Hanjin Buchanan — 3FHB4 — position and weather

sailwx.info

Track history (hours):
 
Tides and Currents Weather Stations Pressure Air Temp Water Temp Dewpoint Dewpoint Depression Visibility Wind Speed Wind Dir Waves Ship Positions

Hanjin Buchanan

Last reported at 2014-Nov-24 20:33 UTC. Time now 2014-Nov-26 06:12 UTC.
Position N 57°48' E 010°19'.

Length 255 m; draft 14.4 m.

Type: Cargo ship. MMSI: 357568000.

Date/timePositionNaut miles runAvg speedWind from/ knotsBaromVisibWave heightAir tempDewpointWater temp
2014-Nov-24 20:33N 57°48' E 010°19'1110.7
2014-Nov-24 19:33N 57°48' E 010°39'8 7.2
2014-Nov-24 18:24N 57°40' E 010°46'1210.8
2014-Nov-24 17:15N 57°32' E 011°04'811.4
2014-Nov-24 16:33N 57°30' E 011°18'1110.8
2014-Nov-24 15:33N 57°22' E 011°30'171 9.5
2014-Nov-23 21:33N 54°30' E 011°31'1111.3
2014-Nov-23 20:33N 54°26' E 011°49'1211.6
2014-Nov-23 19:33N 54°26' E 012°09'1010.1
2014-Nov-23 18:33N 54°36' E 012°16'56 9.3
2014-Nov-23 12:31N 54°60' E 013°44'1211.7
2014-Nov-23 11:32N 55°04' E 014°03'1111.3
2014-Nov-23 10:33N 55°12' E 014°15'1211.3
2014-Nov-23 09:29N 55°22' E 014°29'1111.3
2014-Nov-23 08:32N 55°28' E 014°43'1211.6
2014-Nov-23 07:33N 55°34' E 015°01'1411.7
2014-Nov-23 06:22N 55°40' E 015°23'  
Track history (hours):
 
Tides and Currents Weather Stations Pressure Air Temp Water Temp Dewpoint Dewpoint Depression Visibility Wind Speed Wind Dir Waves Ship Positions

Hanjin Buchanan

Last reported at 2014-Nov-24 20:33 UTC. Time now 2014-Nov-26 06:12 UTC.
Position N 57°48' E 010°19'.

Length 255 m; draft 14.4 m.

Type: Cargo ship. MMSI: 357568000.

Date/timePositionNaut miles runAvg speedWind from/ knotsBaromVisibWave heightAir tempDewpointWater temp
2014-Nov-24 20:33N 57°48' E 010°19'1110.7
2014-Nov-24 19:33N 57°48' E 010°39'8 7.2
2014-Nov-24 18:24N 57°40' E 010°46'1210.8
2014-Nov-24 17:15N 57°32' E 011°04'811.4
2014-Nov-24 16:33N 57°30' E 011°18'1110.8
2014-Nov-24 15:33N 57°22' E 011°30'171 9.5
2014-Nov-23 21:33N 54°30' E 011°31'1111.3
2014-Nov-23 20:33N 54°26' E 011°49'1211.6
2014-Nov-23 19:33N 54°26' E 012°09'1010.1
2014-Nov-23 18:33N 54°36' E 012°16'56 9.3
2014-Nov-23 12:31N 54°60' E 013°44'1211.7
2014-Nov-23 11:32N 55°04' E 014°03'1111.3
2014-Nov-23 10:33N 55°12' E 014°15'1211.3
2014-Nov-23 09:29N 55°22' E 014°29'1111.3
2014-Nov-23 08:32N 55°28' E 014°43'1211.6
2014-Nov-23 07:33N 55°34' E 015°01'1411.7
2014-Nov-23 06:22N 55°40' E 015°23'  

Dump ship's entire track history